createdAt,value
2022-11-24T00:02:25.059Z,7.20
2022-11-24T00:04:51.957Z,7.30
2022-11-24T00:07:18.613Z,7.20
2022-11-24T00:09:45.311Z,7.20
2022-11-24T00:12:12.215Z,7.10
2022-11-24T00:14:38.865Z,7.10
2022-11-24T00:17:05.586Z,7.10
2022-11-24T00:19:32.263Z,7.10
2022-11-24T00:21:58.940Z,7.10
2022-11-24T00:24:25.587Z,7.10
2022-11-24T00:26:52.230Z,7.10
2022-11-24T00:29:18.858Z,7.10
2022-11-24T00:31:45.508Z,7.00
2022-11-24T00:34:14.266Z,7.00
2022-11-24T00:36:41.956Z,7.10
2022-11-24T00:39:12.314Z,7.00
2022-11-24T00:41:39.335Z,7.00
2022-11-24T00:44:06.598Z,7.00
2022-11-24T00:46:33.623Z,7.00
2022-11-24T00:49:00.573Z,7.20
2022-11-24T00:51:30.262Z,7.00
2022-11-24T00:53:58.390Z,7.00
2022-11-24T00:56:26.237Z,7.00
2022-11-24T00:58:53.355Z,6.90
2022-11-24T01:01:26.493Z,6.90
2022-11-24T01:03:55.041Z,6.90
2022-11-24T01:06:24.333Z,7.00
2022-11-24T01:08:51.332Z,6.90
2022-11-24T01:11:19.104Z,6.90
2022-11-24T01:13:48.155Z,6.90
2022-11-24T01:16:26.627Z,6.90
2022-11-24T01:18:53.724Z,6.80
2022-11-24T01:21:21.085Z,6.80
2022-11-24T01:23:47.744Z,6.80
2022-11-24T01:26:17.488Z,6.80
2022-11-24T01:28:47.373Z,6.80
2022-11-24T01:31:15.324Z,6.80
2022-11-24T01:33:42.218Z,6.80
2022-11-24T01:36:08.956Z,6.90
2022-11-24T01:38:35.590Z,6.80
2022-11-24T01:41:14.096Z,7.00
2022-11-24T01:43:42.364Z,6.80
2022-11-24T01:46:15.102Z,6.80
2022-11-24T01:49:04.941Z,6.80
2022-11-24T01:51:35.712Z,6.80
2022-11-24T01:54:11.218Z,6.80
2022-11-24T01:56:41.225Z,6.80
2022-11-24T01:59:11.448Z,6.80
2022-11-24T02:01:38.222Z,6.80
2022-11-24T02:04:08.346Z,6.90
2022-11-24T02:06:36.930Z,6.90
2022-11-24T02:09:14.855Z,6.80
2022-11-24T02:11:42.748Z,7.00
2022-11-24T02:14:13.080Z,6.80
2022-11-24T02:16:42.977Z,6.80
2022-11-24T02:19:18.124Z,6.90
2022-11-24T02:21:44.780Z,6.90
2022-11-24T02:24:24.583Z,7.00
2022-11-24T02:26:52.358Z,6.90
2022-11-24T02:29:20.527Z,6.90
2022-11-24T02:31:55.068Z,7.00
2022-11-24T02:34:21.741Z,6.90
2022-11-24T02:36:48.382Z,7.00
2022-11-24T02:39:15.715Z,7.00
2022-11-24T02:41:46.165Z,7.00
2022-11-24T02:44:15.494Z,7.10
2022-11-24T02:46:42.294Z,7.00
2022-11-24T02:49:09.022Z,6.90
2022-11-24T02:51:35.684Z,7.00
2022-11-24T02:54:02.420Z,7.00
2022-11-24T02:56:29.122Z,7.00
2022-11-24T02:58:55.778Z,7.10
2022-11-24T03:01:22.625Z,7.20
2022-11-24T03:03:49.373Z,7.20
2022-11-24T03:06:16.008Z,7.20
2022-11-24T03:08:42.652Z,7.20
2022-11-24T03:11:09.388Z,7.20
2022-11-24T03:13:36.155Z,7.10
2022-11-24T03:16:02.899Z,7.10
2022-11-24T03:18:29.552Z,7.10
2022-11-24T03:20:59.924Z,7.20
2022-11-24T03:23:26.694Z,7.20
2022-11-24T03:25:53.378Z,7.20
2022-11-24T03:28:20.010Z,7.20
2022-11-24T03:30:49.136Z,7.30
2022-11-24T03:33:15.853Z,7.30
2022-11-24T03:35:42.544Z,7.30
2022-11-24T03:38:09.228Z,7.30
2022-11-24T03:40:35.848Z,7.40
2022-11-24T03:43:02.484Z,7.40
2022-11-24T03:45:46.411Z,7.30
2022-11-24T03:48:15.144Z,7.40
2022-11-24T03:50:41.859Z,7.50
2022-11-24T03:53:08.739Z,7.40
2022-11-24T03:55:35.785Z,7.40
2022-11-24T03:58:02.650Z,7.40
2022-11-24T04:00:29.353Z,7.40
2022-11-24T04:02:56.056Z,7.30
2022-11-24T04:05:22.781Z,7.40
2022-11-24T04:07:49.469Z,7.30
2022-11-24T04:10:16.276Z,7.30
2022-11-24T04:12:45.662Z,7.20
2022-11-24T04:15:17.869Z,7.20
2022-11-24T04:17:45.829Z,7.20
2022-11-24T04:20:13.159Z,7.20
2022-11-24T04:22:39.990Z,7.20
2022-11-24T04:25:07.740Z,7.10
2022-11-24T04:27:35.335Z,7.10
2022-11-24T04:30:02.134Z,7.10
2022-11-24T04:32:28.725Z,7.10
2022-11-24T04:34:55.299Z,7.20
2022-11-24T04:37:21.906Z,7.20
2022-11-24T04:39:48.467Z,7.20
2022-11-24T04:42:15.047Z,7.20
2022-11-24T04:44:41.725Z,7.20
2022-11-24T04:47:15.902Z,7.30
2022-11-24T04:49:42.463Z,7.30
2022-11-24T04:52:09.200Z,7.20
2022-11-24T04:54:36.707Z,7.30
2022-11-24T04:57:03.308Z,7.30
2022-11-24T04:59:30.022Z,7.30
2022-11-24T05:01:56.688Z,7.40
2022-11-24T05:04:23.645Z,7.30
2022-11-24T05:06:50.521Z,7.30
2022-11-24T05:09:17.689Z,7.30
2022-11-24T05:11:44.442Z,7.30
2022-11-24T05:14:11.123Z,7.30
2022-11-24T05:16:38.003Z,7.30
2022-11-24T05:19:04.772Z,7.30
2022-11-24T05:21:31.577Z,7.30
2022-11-24T05:23:58.215Z,7.30
2022-11-24T05:26:25.915Z,7.20
2022-11-24T05:28:52.566Z,7.20
2022-11-24T05:31:19.626Z,7.20
2022-11-24T05:33:46.665Z,7.20
2022-11-24T05:36:33.333Z,7.20
2022-11-24T05:39:00.244Z,7.10
2022-11-24T05:41:26.949Z,7.10
2022-11-24T05:43:53.552Z,7.00
2022-11-24T05:46:20.272Z,7.00
2022-11-24T05:48:46.877Z,7.00
2022-11-24T05:51:13.482Z,7.00
2022-11-24T05:53:40.048Z,6.90
2022-11-24T05:56:07.121Z,6.90
2022-11-24T05:58:33.695Z,6.80
2022-11-24T06:01:00.336Z,6.80
2022-11-24T06:03:26.912Z,6.70
2022-11-24T06:05:53.542Z,6.70
2022-11-24T06:08:20.151Z,6.70
2022-11-24T06:10:46.877Z,6.70
2022-11-24T06:13:13.518Z,6.60
2022-11-24T06:15:40.849Z,6.60
2022-11-24T06:18:07.478Z,6.60
2022-11-24T06:20:34.149Z,6.60
2022-11-24T06:23:01.357Z,6.60
2022-11-24T06:25:28.691Z,6.60
2022-11-24T06:27:55.667Z,6.60
2022-11-24T06:30:22.282Z,6.60
2022-11-24T06:32:49.972Z,6.60
2022-11-24T06:35:16.880Z,6.60
2022-11-24T06:37:43.554Z,6.60
2022-11-24T06:40:10.525Z,6.60
2022-11-24T06:42:37.595Z,6.60
2022-11-24T06:45:10.217Z,6.60
2022-11-24T06:47:37.442Z,6.70
2022-11-24T06:50:04.515Z,6.70
2022-11-24T06:52:31.184Z,6.80
2022-11-24T06:54:57.840Z,6.80
2022-11-24T06:57:24.532Z,6.80
2022-11-24T06:59:51.165Z,6.90
2022-11-24T07:02:17.815Z,6.90
2022-11-24T07:04:44.448Z,6.90
2022-11-24T07:07:11.190Z,7.00
2022-11-24T07:09:37.888Z,7.10
2022-11-24T07:12:05.833Z,7.10
2022-11-24T07:14:33.125Z,7.10
2022-11-24T07:17:02.409Z,7.10
2022-11-24T07:19:29.102Z,7.20
2022-11-24T07:21:55.953Z,7.20
2022-11-24T07:24:22.695Z,7.20
2022-11-24T07:26:49.368Z,7.20
2022-11-24T07:29:16.082Z,7.20
2022-11-24T07:31:42.759Z,7.30
2022-11-24T07:34:09.456Z,7.30
2022-11-24T07:36:36.160Z,7.30
2022-11-24T07:39:02.854Z,7.30
2022-11-24T07:41:29.464Z,7.30
2022-11-24T07:43:56.099Z,7.40
2022-11-24T07:46:22.911Z,7.40
2022-11-24T07:48:49.611Z,7.40
2022-11-24T07:51:16.656Z,7.40
2022-11-24T07:53:43.450Z,7.40
2022-11-24T07:56:10.440Z,7.40
2022-11-24T07:58:37.836Z,7.40
2022-11-24T08:01:16.325Z,7.50
2022-11-24T08:03:44.117Z,7.40
2022-11-24T08:06:30.517Z,7.40
2022-11-24T08:08:58.613Z,7.40
2022-11-24T08:11:25.765Z,7.40
2022-11-24T08:13:52.461Z,7.40
2022-11-24T08:16:20.110Z,8.00
2022-11-24T08:18:52.035Z,7.50
2022-11-24T08:21:19.364Z,7.50
2022-11-24T08:23:46.102Z,7.40
2022-11-24T08:26:16.594Z,7.50
2022-11-24T08:28:44.209Z,7.50
2022-11-24T08:31:13.963Z,7.60
2022-11-24T08:33:41.002Z,7.60
2022-11-24T08:36:15.213Z,7.80
2022-11-24T08:38:42.420Z,7.90
2022-11-24T08:41:11.720Z,8.10
2022-11-24T08:43:38.491Z,8.30
2022-11-24T08:46:08.422Z,8.40
2022-11-24T08:48:35.250Z,8.60
2022-11-24T08:51:13.504Z,8.60
2022-11-24T08:53:41.371Z,8.70
2022-11-24T08:56:08.820Z,8.80
2022-11-24T08:58:36.528Z,8.90
2022-11-24T09:01:12.145Z,8.90
2022-11-24T09:03:41.272Z,9.00
2022-11-24T09:06:11.555Z,9.00
2022-11-24T09:08:38.786Z,9.50
2022-11-24T09:11:12.444Z,9.80
2022-11-24T09:13:39.939Z,9.90
2022-11-24T09:16:09.218Z,10.10
2022-11-24T09:18:36.632Z,10.10
2022-11-24T09:21:18.891Z,10.30
2022-11-24T09:23:50.854Z,10.30
2022-11-24T09:26:24.065Z,10.40
2022-11-24T09:28:54.337Z,10.70
2022-11-24T09:31:23.306Z,10.60
2022-11-24T09:33:49.957Z,10.50
2022-11-24T09:36:16.730Z,10.70
2022-11-24T09:38:43.375Z,10.70
2022-11-24T09:41:43.649Z,10.80
2022-11-24T09:44:31.805Z,10.80
2022-11-24T09:47:32.699Z,10.80
2022-11-24T09:50:04.298Z,10.50
2022-11-24T09:53:03.641Z,10.30
2022-11-24T09:55:38.988Z,10.20
2022-11-24T09:58:18.556Z,10.20
2022-11-24T10:00:48.379Z,10.20
2022-11-24T10:03:45.587Z,10.20
2022-11-24T10:06:21.221Z,10.20
2022-11-24T10:08:59.989Z,10.10
2022-11-24T10:11:38.727Z,10.00
2022-11-24T10:14:24.088Z,10.10
2022-11-24T10:17:04.176Z,10.10
2022-11-24T10:19:47.254Z,10.10
2022-11-24T10:22:28.593Z,10.10
2022-11-24T10:25:13.120Z,10.00
2022-11-24T10:27:57.176Z,10.10
2022-11-24T10:30:24.047Z,10.20
2022-11-24T10:33:01.373Z,10.20
2022-11-24T10:35:50.480Z,10.70
2022-11-24T10:38:20.108Z,10.90
2022-11-24T10:40:59.466Z,11.30
2022-11-24T10:43:28.329Z,11.80
2022-11-24T10:46:15.962Z,12.20
2022-11-24T10:48:53.661Z,12.50
2022-11-24T10:51:34.867Z,11.80
2022-11-24T10:54:09.514Z,11.40
2022-11-24T10:56:41.302Z,11.40
2022-11-24T10:59:35.227Z,11.30
2022-11-24T11:02:02.893Z,11.00
2022-11-24T11:04:34.802Z,10.80
2022-11-24T11:07:09.660Z,10.40
2022-11-24T11:09:36.666Z,10.30
2022-11-24T11:12:42.236Z,10.20
2022-11-24T11:15:16.002Z,10.20
2022-11-24T11:17:44.364Z,10.40
2022-11-24T11:20:22.067Z,10.40
2022-11-24T11:22:50.686Z,10.40
2022-11-24T11:25:29.655Z,10.30
2022-11-24T11:28:31.906Z,10.30
2022-11-24T11:31:19.689Z,10.40
2022-11-24T11:34:03.757Z,10.60
2022-11-24T11:36:32.588Z,10.50
2022-11-24T11:38:59.897Z,10.50
2022-11-24T11:41:32.764Z,10.50
2022-11-24T11:44:11.216Z,10.50
2022-11-24T11:46:38.218Z,10.60
2022-11-24T11:49:05.299Z,10.50
2022-11-24T11:51:44.082Z,10.40
2022-11-24T11:54:42.906Z,10.40
2022-11-24T11:57:27.773Z,10.40
2022-11-24T12:00:17.177Z,10.40
2022-11-24T12:03:19.242Z,10.50
2022-11-24T12:06:19.300Z,10.60
2022-11-24T12:09:23.190Z,10.60
2022-11-24T12:12:15.867Z,10.50
2022-11-24T12:14:45.289Z,10.50
2022-11-24T12:17:30.386Z,10.50
2022-11-24T12:20:18.788Z,10.50
2022-11-24T12:23:20.489Z,10.60
2022-11-24T12:25:47.085Z,10.60
2022-11-24T12:28:57.201Z,10.70
2022-11-24T12:31:55.925Z,10.80
2022-11-24T12:34:54.484Z,10.90
2022-11-24T12:37:38.204Z,11.00
2022-11-24T12:40:28.692Z,11.00
2022-11-24T12:43:19.357Z,10.90
2022-11-24T12:45:56.800Z,10.90
2022-11-24T12:48:41.949Z,11.00
2022-11-24T12:51:22.750Z,10.90
2022-11-24T12:53:52.980Z,10.90
2022-11-24T12:56:25.865Z,10.90
2022-11-24T12:59:20.768Z,10.90
2022-11-24T13:01:56.387Z,10.90
2022-11-24T13:04:32.562Z,10.90
2022-11-24T13:07:21.037Z,10.80
2022-11-24T13:13:13.330Z,10.90
2022-11-24T13:16:34.613Z,11.00
2022-11-24T13:18:43.120Z,11.00
2022-11-24T13:21:31.862Z,11.00
2022-11-24T13:24:00.913Z,11.10
2022-11-24T13:26:44.038Z,11.00
2022-11-24T13:29:38.410Z,11.00
2022-11-24T13:32:05.037Z,11.00
2022-11-24T13:34:40.714Z,10.90
2022-11-24T13:37:35.422Z,11.00
2022-11-24T13:40:11.657Z,10.90
2022-11-24T13:42:57.158Z,10.80
2022-11-24T13:45:43.044Z,10.70
2022-11-24T13:48:22.497Z,10.70
2022-11-24T13:50:58.378Z,10.70
2022-11-24T13:53:48.193Z,10.80
2022-11-24T13:56:17.594Z,10.70
2022-11-24T13:58:54.781Z,10.70
2022-11-24T14:01:36.767Z,10.70
2022-11-24T14:04:32.843Z,10.60
2022-11-24T14:07:07.939Z,10.60
2022-11-24T14:09:44.643Z,10.50
2022-11-24T14:12:22.713Z,10.50
2022-11-24T14:14:55.608Z,10.40
2022-11-24T14:17:28.135Z,10.40
2022-11-24T14:19:56.582Z,10.40
2022-11-24T14:22:27.056Z,10.30
2022-11-24T14:24:58.669Z,10.30
2022-11-24T14:27:39.092Z,10.30
2022-11-24T14:30:14.568Z,10.20
2022-11-24T14:32:52.676Z,10.20
2022-11-24T14:35:28.621Z,10.10
2022-11-24T14:37:55.865Z,10.10
2022-11-24T14:41:13.246Z,10.00
2022-11-24T14:43:39.779Z,10.00
2022-11-24T14:46:10.403Z,9.90
2022-11-24T14:48:58.381Z,9.90
2022-11-24T14:51:29.151Z,9.90
2022-11-24T14:54:02.100Z,9.80
2022-11-24T14:56:35.092Z,9.80
2022-11-24T14:59:02.381Z,9.70
2022-11-24T15:01:32.471Z,9.70
2022-11-24T15:04:39.023Z,9.70
2022-11-24T15:07:21.454Z,9.60
2022-11-24T15:09:48.063Z,9.50
2022-11-24T15:12:28.689Z,9.50
2022-11-24T15:15:00.439Z,9.50
2022-11-24T15:17:29.017Z,9.40
2022-11-24T15:20:09.387Z,9.30
2022-11-24T15:22:41.507Z,9.30
2022-11-24T15:25:40.353Z,9.20
2022-11-24T15:28:08.449Z,9.20
2022-11-24T15:30:36.301Z,9.10
2022-11-24T15:33:03.355Z,9.10
2022-11-24T15:35:32.018Z,9.00
2022-11-24T15:37:59.000Z,9.00
2022-11-24T15:40:25.688Z,8.90
2022-11-24T15:42:54.890Z,8.80
2022-11-24T15:45:24.455Z,8.80
2022-11-24T15:47:51.268Z,8.80
2022-11-24T15:50:18.750Z,8.70
2022-11-24T15:52:47.081Z,8.70
2022-11-24T15:55:19.821Z,8.60
2022-11-24T15:57:46.443Z,8.60
2022-11-24T16:00:21.014Z,8.60
2022-11-24T16:02:48.425Z,8.50
2022-11-24T16:05:16.437Z,8.50
2022-11-24T16:07:44.547Z,8.50
2022-11-24T16:10:30.348Z,8.40
2022-11-24T16:12:57.379Z,8.50
2022-11-24T16:15:24.228Z,8.40
2022-11-24T16:17:50.979Z,8.40
2022-11-24T16:20:17.728Z,8.30
2022-11-24T16:22:44.570Z,8.30
2022-11-24T16:25:12.289Z,8.20
2022-11-24T16:27:38.904Z,8.20
2022-11-24T16:30:07.047Z,8.20
2022-11-24T16:32:34.092Z,8.10
2022-11-24T16:35:00.977Z,8.10
2022-11-24T16:37:27.552Z,8.00
2022-11-24T16:39:54.183Z,8.10
2022-11-24T16:42:20.825Z,8.00
2022-11-24T16:44:47.452Z,8.00
2022-11-24T16:47:14.045Z,8.00
2022-11-24T16:49:40.802Z,8.00
2022-11-24T16:52:08.433Z,8.00
2022-11-24T16:54:35.209Z,7.90
2022-11-24T16:57:02.017Z,7.90
2022-11-24T16:59:28.945Z,7.80
2022-11-24T17:01:55.660Z,7.80
2022-11-24T17:04:22.372Z,7.80
2022-11-24T17:06:49.043Z,7.70
2022-11-24T17:09:16.776Z,7.70
2022-11-24T17:11:43.379Z,7.60
2022-11-24T17:14:11.086Z,7.60
2022-11-24T17:16:38.722Z,7.60
2022-11-24T17:19:05.832Z,7.60
2022-11-24T17:21:32.904Z,7.60
2022-11-24T17:24:02.598Z,7.60
2022-11-24T17:26:29.413Z,7.50
2022-11-24T17:28:56.269Z,7.50
2022-11-24T17:31:39.675Z,7.50
2022-11-24T17:34:07.702Z,7.40
2022-11-24T17:36:35.402Z,7.40
2022-11-24T17:39:09.446Z,7.40
2022-11-24T17:41:36.289Z,7.30
2022-11-24T17:44:03.380Z,7.30
2022-11-24T17:46:31.000Z,7.30
2022-11-24T17:48:58.275Z,7.30
2022-11-24T17:51:26.240Z,7.30
2022-11-24T17:53:54.309Z,7.20
2022-11-24T17:56:23.594Z,7.20
2022-11-24T17:59:00.805Z,7.20
2022-11-24T18:01:29.967Z,7.20
2022-11-24T18:03:56.936Z,7.20
2022-11-24T18:06:27.872Z,7.20
2022-11-24T18:08:57.008Z,7.20
2022-11-24T18:11:31.122Z,7.10
2022-11-24T18:14:02.161Z,7.10
2022-11-24T18:16:34.021Z,7.10
2022-11-24T18:19:11.467Z,7.10
2022-11-24T18:21:40.493Z,7.10
2022-11-24T18:24:09.922Z,7.00
2022-11-24T18:26:37.540Z,7.00
2022-11-24T18:29:04.656Z,7.00
2022-11-24T18:31:32.288Z,7.00
2022-11-24T18:33:59.529Z,7.00
2022-11-24T18:36:30.199Z,6.90
2022-11-24T18:38:59.783Z,7.00
2022-11-24T18:41:27.093Z,6.90
2022-11-24T18:43:53.886Z,6.90
2022-11-24T18:46:20.501Z,6.90
2022-11-24T18:48:47.233Z,6.90
2022-11-24T18:51:16.676Z,6.90
2022-11-24T18:53:45.736Z,6.90
2022-11-24T18:56:16.947Z,6.90
2022-11-24T18:58:44.373Z,6.90
2022-11-24T19:01:16.635Z,6.90
2022-11-24T19:03:48.642Z,6.90
2022-11-24T19:06:28.506Z,6.80
2022-11-24T19:08:55.941Z,6.80
2022-11-24T19:11:24.841Z,6.80
2022-11-24T19:13:51.503Z,6.90
2022-11-24T19:16:19.859Z,6.80
2022-11-24T19:18:53.097Z,6.80
2022-11-24T19:21:20.785Z,6.80
2022-11-24T19:23:47.535Z,6.80
2022-11-24T19:26:14.187Z,6.70
2022-11-24T19:28:40.824Z,6.70
2022-11-24T19:31:10.344Z,6.70
2022-11-24T19:33:36.996Z,7.30
2022-11-24T19:36:10.670Z,6.70
2022-11-24T19:38:37.772Z,6.70
2022-11-24T19:41:09.937Z,6.70
2022-11-24T19:43:36.617Z,6.70
2022-11-24T19:46:12.409Z,6.70
2022-11-24T19:48:41.475Z,6.70
2022-11-24T19:51:11.378Z,6.80
2022-11-24T19:53:38.071Z,6.80
2022-11-24T19:56:16.712Z,6.80
2022-11-24T19:58:43.667Z,6.80
2022-11-24T20:01:13.767Z,6.90
2022-11-24T20:03:41.610Z,6.90
2022-11-24T20:06:09.870Z,6.90
2022-11-24T20:08:38.405Z,7.00
2022-11-24T20:11:08.211Z,7.00
2022-11-24T20:13:36.457Z,7.00
2022-11-24T20:16:04.933Z,6.90
2022-11-24T20:18:36.354Z,7.00
2022-11-24T20:21:10.732Z,7.00
2022-11-24T20:23:38.488Z,7.00
2022-11-24T20:26:19.662Z,7.10
2022-11-24T20:28:47.303Z,7.10
2022-11-24T20:31:17.035Z,7.20
2022-11-24T20:33:44.288Z,7.20
2022-11-24T20:36:16.910Z,7.20
2022-11-24T20:38:44.368Z,7.20
2022-11-24T20:41:12.373Z,7.30
2022-11-24T20:43:40.092Z,7.30
2022-11-24T20:46:16.444Z,7.30
2022-11-24T20:48:43.635Z,7.30
2022-11-24T20:51:20.601Z,7.20
2022-11-24T20:53:47.876Z,7.20
2022-11-24T20:56:17.711Z,7.30
2022-11-24T20:58:44.424Z,7.20
2022-11-24T21:01:14.346Z,7.20
2022-11-24T21:03:43.463Z,7.20
2022-11-24T21:06:11.732Z,7.30
2022-11-24T21:08:40.169Z,7.20
2022-11-24T21:11:09.216Z,7.20
2022-11-24T21:13:37.517Z,7.20
2022-11-24T21:16:22.165Z,7.20
2022-11-24T21:18:51.158Z,7.20
2022-11-24T21:21:19.582Z,7.20
2022-11-24T21:23:47.219Z,7.20
2022-11-24T21:26:17.175Z,7.10
2022-11-24T21:28:45.708Z,7.10
2022-11-24T21:31:18.194Z,7.10
2022-11-24T21:33:50.256Z,7.10
2022-11-24T21:36:19.963Z,7.00
2022-11-24T21:38:51.944Z,7.00
2022-11-24T21:41:19.382Z,7.00
2022-11-24T21:43:46.320Z,6.90
2022-11-24T21:46:13.526Z,6.90
2022-11-24T21:48:41.844Z,6.90
2022-11-24T21:51:19.852Z,6.90
2022-11-24T21:53:47.330Z,6.80
2022-11-24T21:56:17.013Z,6.80
2022-11-24T21:58:48.759Z,6.80
2022-11-24T22:01:17.510Z,6.80
2022-11-24T22:03:44.198Z,6.80
2022-11-24T22:06:11.096Z,6.80
2022-11-24T22:08:38.156Z,6.70
2022-11-24T22:11:13.839Z,6.60
2022-11-24T22:13:40.759Z,6.70
2022-11-24T22:16:12.715Z,6.60
2022-11-24T22:18:41.284Z,6.60
2022-11-24T22:21:11.044Z,6.60
2022-11-24T22:23:37.843Z,6.60
2022-11-24T22:26:14.775Z,6.50
2022-11-24T22:28:41.832Z,6.50
2022-11-24T22:31:12.510Z,6.50
2022-11-24T22:33:39.356Z,6.50
2022-11-24T22:36:06.739Z,6.50
2022-11-24T22:38:34.014Z,6.50
2022-11-24T22:41:09.331Z,6.50
2022-11-24T22:43:38.077Z,6.40
2022-11-24T22:46:11.038Z,6.40
2022-11-24T22:48:38.513Z,6.50
2022-11-24T22:51:07.376Z,6.60
2022-11-24T22:53:34.275Z,6.70
2022-11-24T22:56:06.055Z,6.50
2022-11-24T22:58:33.514Z,6.50
2022-11-24T23:01:11.432Z,6.50
2022-11-24T23:03:39.141Z,6.50
2022-11-24T23:06:08.467Z,6.60
2022-11-24T23:08:36.036Z,6.60
2022-11-24T23:11:07.672Z,6.60
2022-11-24T23:13:34.684Z,6.60
2022-11-24T23:16:13.167Z,6.60
2022-11-24T23:18:40.187Z,6.70
2022-11-24T23:21:27.847Z,6.60
2022-11-24T23:23:54.904Z,6.70
2022-11-24T23:26:39.321Z,6.80
2022-11-24T23:29:07.075Z,6.80
2022-11-24T23:31:34.124Z,6.80
2022-11-24T23:34:04.298Z,6.80
2022-11-24T23:36:31.808Z,6.80
2022-11-24T23:39:11.455Z,6.90
2022-11-24T23:41:38.170Z,6.80
2022-11-24T23:44:04.943Z,6.80
2022-11-24T23:46:32.005Z,6.90
2022-11-24T23:48:58.979Z,6.90
2022-11-24T23:51:31.062Z,6.90
2022-11-24T23:53:59.253Z,6.90
2022-11-24T23:56:28.795Z,6.90
2022-11-24T23:58:55.393Z,6.90
